Aeropuerto de Asturias

latitud = 43° 34' 01''N | longitud = 006° 02' 39''W
127 metros sobre el nivel del mar | datos mensuales

Fecha, hora, temperatura, viento dirección y velocidad, humedad y presión.

  • 25-09-2017 00:00:00 | 15.70°C | Sur |2.00 km/h | 97.00% | 1006.20 hPa
  • 24-09-2017 23:00:00 | 16.80°C | Calma |0.00 km/h | 96.00% | 1005.90 hPa
  • 24-09-2017 22:00:00 | 17.10°C | Norte |4.00 km/h | 96.00% | 1005.40 hPa
  • 24-09-2017 21:00:00 | 17.80°C | Noroeste |6.00 km/h | 90.00% | 1005.90 hPa
  • 24-09-2017 20:00:00 | 18.20°C | Calma |0.00 km/h | 89.00% | 1004.50 hPa
  • 24-09-2017 19:00:00 | 19.00°C | Nordeste |2.00 km/h | 87.00% | 1003.90 hPa
  • 24-09-2017 18:00:00 | 20.00°C | Noroeste |2.00 km/h | 84.00% | 1003.80 hPa
  • 24-09-2017 17:00:00 | 20.60°C | Noroeste |6.00 km/h | 83.00% | 1003.50 hPa
  • 24-09-2017 16:00:00 | 20.60°C | Norte |6.00 km/h | 81.00% | 1003.40 hPa
  • 24-09-2017 15:00:00 | 22.50°C | Norte |4.00 km/h | 66.00% | 1003.00 hPa
  • 24-09-2017 14:00:00 | 22.00°C | Calma |0.00 km/h | 62.00% | 1003.20 hPa
  • 24-09-2017 13:00:00 | 22.40°C | Noroeste |6.00 km/h | 64.00% | 1003.40 hPa
  • 24-09-2017 12:00:00 | 20.60°C | Sudoeste |4.00 km/h | 71.00% | 1003.40 hPa
  • 24-09-2017 11:00:00 | 17.30°C | Sudoeste |8.00 km/h | 82.00% | 1003.70 hPa
  • 24-09-2017 10:00:00 | 15.90°C | Sudoeste |14.00 km/h | 87.00% | 1003.30 hPa
  • 24-09-2017 09:00:00 | 14.50°C | Sudoeste |14.00 km/h | 95.00% | 1003.10 hPa
  • 24-09-2017 08:00:00 | 14.20°C | Sudoeste |15.00 km/h | 98.00% | 1003.00 hPa
  • 24-09-2017 07:00:00 | 14.40°C | Sudoeste |15.00 km/h | 98.00% | 1003.00 hPa
  • 24-09-2017 06:00:00 | 14.90°C | Sudoeste |13.00 km/h | 97.00% | 1003.20 hPa
  • 24-09-2017 05:00:00 | 15.30°C | Sudoeste |13.00 km/h | 96.00% | 1003.20 hPa
  • 24-09-2017 04:00:00 | 15.60°C | Sudoeste |9.00 km/h | 95.00% | 1003.50 hPa
  • 24-09-2017 03:00:00 | 15.70°C | Sur |8.00 km/h | 94.00% | 1003.90 hPa
  • 24-09-2017 02:00:00 | 15.50°C | Sur |6.00 km/h | 95.00% | 1004.00 hPa
  • 24-09-2017 01:00:00 | 15.00°C | Sur |3.00 km/h | 93.00% | 1004.40 hPa